sensor_id;sensor_type;location;lat;lon;timestamp;temperature;humidity
2042;DHT22;1026;51.460;7.252;2023-07-29T00:01:47;20.00;91.60
2042;DHT22;1026;51.460;7.252;2023-07-29T00:04:22;20.00;91.60
2042;DHT22;1026;51.460;7.252;2023-07-29T00:06:49;20.00;91.50
2042;DHT22;1026;51.460;7.252;2023-07-29T00:09:22;19.90;91.50
2042;DHT22;1026;51.460;7.252;2023-07-29T00:11:49;19.90;91.90
2042;DHT22;1026;51.460;7.252;2023-07-29T00:14:16;19.90;91.50
2042;DHT22;1026;51.460;7.252;2023-07-29T00:16:49;19.90;91.50
2042;DHT22;1026;51.460;7.252;2023-07-29T00:19:16;19.90;91.50
2042;DHT22;1026;51.460;7.252;2023-07-29T00:21:43;19.90;91.50
2042;DHT22;1026;51.460;7.252;2023-07-29T00:24:16;19.90;91.60
2042;DHT22;1026;51.460;7.252;2023-07-29T00:26:43;19.90;91.70
2042;DHT22;1026;51.460;7.252;2023-07-29T00:29:16;19.80;91.70
2042;DHT22;1026;51.460;7.252;2023-07-29T00:31:43;19.90;92.00
2042;DHT22;1026;51.460;7.252;2023-07-29T00:34:10;19.80;92.10
2042;DHT22;1026;51.460;7.252;2023-07-29T00:36:44;19.80;92.20
2042;DHT22;1026;51.460;7.252;2023-07-29T00:39:11;19.80;91.80
2042;DHT22;1026;51.460;7.252;2023-07-29T00:41:38;19.80;92.00
2042;DHT22;1026;51.460;7.252;2023-07-29T00:44:11;19.80;92.00
2042;DHT22;1026;51.460;7.252;2023-07-29T00:46:40;19.80;91.70
2042;DHT22;1026;51.460;7.252;2023-07-29T00:49:15;19.80;91.70
2042;DHT22;1026;51.460;7.252;2023-07-29T00:51:42;19.80;91.80
2042;DHT22;1026;51.460;7.252;2023-07-29T00:54:08;19.70;91.60
2042;DHT22;1026;51.460;7.252;2023-07-29T00:56:41;19.70;91.60
2042;DHT22;1026;51.460;7.252;2023-07-29T00:59:09;19.70;91.60
2042;DHT22;1026;51.460;7.252;2023-07-29T01:01:49;19.70;91.80
2042;DHT22;1026;51.460;7.252;2023-07-29T01:04:16;19.70;91.80
2042;DHT22;1026;51.460;7.252;2023-07-29T01:07:33;19.70;91.80
2042;DHT22;1026;51.460;7.252;2023-07-29T01:12:18;19.70;92.40
2042;DHT22;1026;51.460;7.252;2023-07-29T01:16:52;19.60;91.80
2042;DHT22;1026;51.460;7.252;2023-07-29T01:22:44;19.60;91.90
2042;DHT22;1026;51.460;7.252;2023-07-29T01:25:11;19.60;92.00
2042;DHT22;1026;51.460;7.252;2023-07-29T01:27:38;19.60;91.90
2042;DHT22;1026;51.460;7.252;2023-07-29T01:30:39;19.60;92.00
2042;DHT22;1026;51.460;7.252;2023-07-29T01:33:20;19.60;91.90
2042;DHT22;1026;51.460;7.252;2023-07-29T01:36:18;19.60;92.00
2042;DHT22;1026;51.460;7.252;2023-07-29T01:38:46;19.50;91.90
2042;DHT22;1026;51.460;7.252;2023-07-29T01:41:21;19.50;91.90
2042;DHT22;1026;51.460;7.252;2023-07-29T01:43:48;19.50;92.10
2042;DHT22;1026;51.460;7.252;2023-07-29T01:46:21;19.50;91.70
2042;DHT22;1026;51.460;7.252;2023-07-29T01:48:48;19.50;91.70
2042;DHT22;1026;51.460;7.252;2023-07-29T01:52:08;19.50;91.70
2042;DHT22;1026;51.460;7.252;2023-07-29T01:54:44;19.50;91.70
2042;DHT22;1026;51.460;7.252;2023-07-29T01:57:39;19.50;91.80
2042;DHT22;1026;51.460;7.252;2023-07-29T02:00:13;19.50;91.80
2042;DHT22;1026;51.460;7.252;2023-07-29T02:02:45;19.50;91.80
2042;DHT22;1026;51.460;7.252;2023-07-29T02:05:39;19.40;91.70
2042;DHT22;1026;51.460;7.252;2023-07-29T02:08:06;19.40;91.80
2042;DHT22;1026;51.460;7.252;2023-07-29T02:10:39;19.40;91.80
2042;DHT22;1026;51.460;7.252;2023-07-29T02:13:06;19.40;91.90
2042;DHT22;1026;51.460;7.252;2023-07-29T02:15:42;19.40;91.80
2042;DHT22;1026;51.460;7.252;2023-07-29T02:18:15;19.40;91.80
2042;DHT22;1026;51.460;7.252;2023-07-29T02:20:42;19.40;91.90
2042;DHT22;1026;51.460;7.252;2023-07-29T02:23:21;19.40;92.30
2042;DHT22;1026;51.460;7.252;2023-07-29T02:25:50;19.40;92.00
2042;DHT22;1026;51.460;7.252;2023-07-29T02:28:24;19.30;91.90
2042;DHT22;1026;51.460;7.252;2023-07-29T02:31:19;19.30;91.90
2042;DHT22;1026;51.460;7.252;2023-07-29T02:33:46;19.30;92.00
2042;DHT22;1026;51.460;7.252;2023-07-29T02:36:20;19.30;92.00
2042;DHT22;1026;51.460;7.252;2023-07-29T02:38:46;19.30;92.00
2042;DHT22;1026;51.460;7.252;2023-07-29T02:41:13;19.30;92.00
2042;DHT22;1026;51.460;7.252;2023-07-29T02:43:49;19.30;92.10
2042;DHT22;1026;51.460;7.252;2023-07-29T02:46:16;19.30;92.00
2042;DHT22;1026;51.460;7.252;2023-07-29T02:48:52;19.30;92.00
2042;DHT22;1026;51.460;7.252;2023-07-29T02:51:26;19.30;92.00
2042;DHT22;1026;51.460;7.252;2023-07-29T02:53:52;19.20;92.00
2042;DHT22;1026;51.460;7.252;2023-07-29T02:56:26;19.30;92.10
2042;DHT22;1026;51.460;7.252;2023-07-29T02:58:53;19.20;92.00
2042;DHT22;1026;51.460;7.252;2023-07-29T03:01:32;19.20;92.00
2042;DHT22;1026;51.460;7.252;2023-07-29T03:04:13;19.20;92.00
2042;DHT22;1026;51.460;7.252;2023-07-29T03:06:46;19.20;92.00
2042;DHT22;1026;51.460;7.252;2023-07-29T03:09:21;19.20;92.00
2042;DHT22;1026;51.460;7.252;2023-07-29T03:11:47;19.20;92.00
2042;DHT22;1026;51.460;7.252;2023-07-29T03:14:14;19.20;92.10
2042;DHT22;1026;51.460;7.252;2023-07-29T03:16:53;19.20;92.10
2042;DHT22;1026;51.460;7.252;2023-07-29T03:19:27;19.20;92.10
2042;DHT22;1026;51.460;7.252;2023-07-29T03:21:54;19.20;92.10
2042;DHT22;1026;51.460;7.252;2023-07-29T03:24:20;19.20;92.10
2042;DHT22;1026;51.460;7.252;2023-07-29T03:26:54;19.20;92.10
2042;DHT22;1026;51.460;7.252;2023-07-29T03:29:27;19.20;92.10
2042;DHT22;1026;51.460;7.252;2023-07-29T03:31:54;19.20;92.10
2042;DHT22;1026;51.460;7.252;2023-07-29T03:34:21;19.20;92.20
2042;DHT22;1026;51.460;7.252;2023-07-29T03:36:55;19.10;92.10
2042;DHT22;1026;51.460;7.252;2023-07-29T03:39:21;19.10;92.10
2042;DHT22;1026;51.460;7.252;2023-07-29T03:41:48;19.20;92.10
2042;DHT22;1026;51.460;7.252;2023-07-29T03:44:22;19.10;92.10
2042;DHT22;1026;51.460;7.252;2023-07-29T03:46:55;19.10;92.20
2042;DHT22;1026;51.460;7.252;2023-07-29T03:49:28;19.10;92.10
2042;DHT22;1026;51.460;7.252;2023-07-29T03:51:55;19.10;92.10
2042;DHT22;1026;51.460;7.252;2023-07-29T03:54:28;19.10;92.10
2042;DHT22;1026;51.460;7.252;2023-07-29T03:56:54;19.10;92.20
2042;DHT22;1026;51.460;7.252;2023-07-29T03:59:21;19.10;92.20
2042;DHT22;1026;51.460;7.252;2023-07-29T04:02:08;19.10;92.20
2042;DHT22;1026;51.460;7.252;2023-07-29T04:04:36;19.10;92.20
2042;DHT22;1026;51.460;7.252;2023-07-29T04:07:31;19.10;92.10
2042;DHT22;1026;51.460;7.252;2023-07-29T04:10:06;19.00;92.10
2042;DHT22;1026;51.460;7.252;2023-07-29T04:12:40;19.00;92.10
2042;DHT22;1026;51.460;7.252;2023-07-29T04:15:07;19.00;92.10
2042;DHT22;1026;51.460;7.252;2023-07-29T04:17:34;19.00;92.20
2042;DHT22;1026;51.460;7.252;2023-07-29T04:20:08;19.00;92.20
2042;DHT22;1026;51.460;7.252;2023-07-29T04:22:42;19.00;92.20
2042;DHT22;1026;51.460;7.252;2023-07-29T04:25:08;19.00;92.20
2042;DHT22;1026;51.460;7.252;2023-07-29T04:27:35;19.00;92.20
2042;DHT22;1026;51.460;7.252;2023-07-29T04:30:09;19.00;92.20
2042;DHT22;1026;51.460;7.252;2023-07-29T04:32:36;19.00;92.20
2042;DHT22;1026;51.460;7.252;2023-07-29T04:35:10;19.00;92.20
2042;DHT22;1026;51.460;7.252;2023-07-29T04:37:36;19.00;92.20
2042;DHT22;1026;51.460;7.252;2023-07-29T04:40:10;19.00;92.20
2042;DHT22;1026;51.460;7.252;2023-07-29T04:42:44;19.00;92.30
2042;DHT22;1026;51.460;7.252;2023-07-29T04:45:11;19.00;92.30
2042;DHT22;1026;51.460;7.252;2023-07-29T04:47:38;19.00;92.30
2042;DHT22;1026;51.460;7.252;2023-07-29T04:50:11;19.00;92.30
2042;DHT22;1026;51.460;7.252;2023-07-29T04:52:38;19.00;92.60
2042;DHT22;1026;51.460;7.252;2023-07-29T04:55:11;19.00;92.40
2042;DHT22;1026;51.460;7.252;2023-07-29T04:57:38;19.00;92.30
2042;DHT22;1026;51.460;7.252;2023-07-29T05:00:05;19.00;92.30
2042;DHT22;1026;51.460;7.252;2023-07-29T05:02:39;19.00;92.30
2042;DHT22;1026;51.460;7.252;2023-07-29T05:05:06;19.00;92.30
2042;DHT22;1026;51.460;7.252;2023-07-29T05:07:41;18.90;92.30
2042;DHT22;1026;51.460;7.252;2023-07-29T05:10:11;19.00;92.40
2042;DHT22;1026;51.460;7.252;2023-07-29T05:12:45;18.90;92.40
2042;DHT22;1026;51.460;7.252;2023-07-29T05:15:12;18.90;92.40
2042;DHT22;1026;51.460;7.252;2023-07-29T05:17:45;18.90;92.40
2042;DHT22;1026;51.460;7.252;2023-07-29T05:20:12;18.90;92.50
2042;DHT22;1026;51.460;7.252;2023-07-29T05:22:39;18.90;92.70
2042;DHT22;1026;51.460;7.252;2023-07-29T05:25:12;18.90;92.50
2042;DHT22;1026;51.460;7.252;2023-07-29T05:27:39;18.90;92.40
2042;DHT22;1026;51.460;7.252;2023-07-29T05:30:12;18.90;92.40
2042;DHT22;1026;51.460;7.252;2023-07-29T05:32:38;18.90;92.50
2042;DHT22;1026;51.460;7.252;2023-07-29T05:35:06;18.90;92.50
2042;DHT22;1026;51.460;7.252;2023-07-29T05:37:40;18.90;92.50
2042;DHT22;1026;51.460;7.252;2023-07-29T05:40:14;18.90;92.50
2042;DHT22;1026;51.460;7.252;2023-07-29T05:42:47;18.90;92.50
2042;DHT22;1026;51.460;7.252;2023-07-29T05:45:21;18.90;92.50
2042;DHT22;1026;51.460;7.252;2023-07-29T05:47:54;18.90;92.40
2042;DHT22;1026;51.460;7.252;2023-07-29T05:50:21;18.90;92.50
2042;DHT22;1026;51.460;7.252;2023-07-29T05:52:54;18.90;92.40
2042;DHT22;1026;51.460;7.252;2023-07-29T05:55:21;18.90;92.80
2042;DHT22;1026;51.460;7.252;2023-07-29T05:57:54;18.90;92.50
2042;DHT22;1026;51.460;7.252;2023-07-29T06:00:28;19.00;92.50
2042;DHT22;1026;51.460;7.252;2023-07-29T06:03:01;18.90;92.50
2042;DHT22;1026;51.460;7.252;2023-07-29T06:05:35;18.90;92.50
2042;DHT22;1026;51.460;7.252;2023-07-29T06:08:02;18.90;92.50
2042;DHT22;1026;51.460;7.252;2023-07-29T06:10:45;18.90;92.50
2042;DHT22;1026;51.460;7.252;2023-07-29T06:13:12;18.90;92.50
2042;DHT22;1026;51.460;7.252;2023-07-29T06:15:45;18.90;92.50
2042;DHT22;1026;51.460;7.252;2023-07-29T06:18:39;18.90;92.50
2042;DHT22;1026;51.460;7.252;2023-07-29T06:21:13;18.90;92.60
2042;DHT22;1026;51.460;7.252;2023-07-29T06:23:50;18.90;92.90
2042;DHT22;1026;51.460;7.252;2023-07-29T06:26:23;18.90;92.60
2042;DHT22;1026;51.460;7.252;2023-07-29T06:28:50;18.90;92.60
2042;DHT22;1026;51.460;7.252;2023-07-29T06:31:24;18.90;92.60
2042;DHT22;1026;51.460;7.252;2023-07-29T06:33:51;18.90;92.60
2042;DHT22;1026;51.460;7.252;2023-07-29T06:36:18;18.90;92.60
2042;DHT22;1026;51.460;7.252;2023-07-29T06:38:51;18.90;92.70
2042;DHT22;1026;51.460;7.252;2023-07-29T06:41:24;18.90;92.60
2042;DHT22;1026;51.460;7.252;2023-07-29T06:46:35;18.90;92.60
2042;DHT22;1026;51.460;7.252;2023-07-29T06:49:08;18.90;92.60
2042;DHT22;1026;51.460;7.252;2023-07-29T06:51:35;18.90;92.60
2042;DHT22;1026;51.460;7.252;2023-07-29T06:54:09;18.90;92.60
2042;DHT22;1026;51.460;7.252;2023-07-29T06:56:36;18.90;92.60
2042;DHT22;1026;51.460;7.252;2023-07-29T06:59:11;18.90;92.60
2042;DHT22;1026;51.460;7.252;2023-07-29T07:01:45;18.90;92.60
2042;DHT22;1026;51.460;7.252;2023-07-29T07:04:25;18.90;92.60
2042;DHT22;1026;51.460;7.252;2023-07-29T07:06:52;18.90;92.50
2042;DHT22;1026;51.460;7.252;2023-07-29T07:09:19;18.90;92.50
2042;DHT22;1026;51.460;7.252;2023-07-29T07:11:53;18.90;92.50
2042;DHT22;1026;51.460;7.252;2023-07-29T07:14:20;18.90;92.60
2042;DHT22;1026;51.460;7.252;2023-07-29T07:16:53;18.90;92.50
2042;DHT22;1026;51.460;7.252;2023-07-29T07:19:25;18.90;92.60
2042;DHT22;1026;51.460;7.252;2023-07-29T07:21:58;18.90;92.60
2042;DHT22;1026;51.460;7.252;2023-07-29T07:24:31;18.90;92.60
2042;DHT22;1026;51.460;7.252;2023-07-29T07:26:58;18.90;92.70
2042;DHT22;1026;51.460;7.252;2023-07-29T07:29:25;18.90;92.60
2042;DHT22;1026;51.460;7.252;2023-07-29T07:32:19;18.90;92.60
2042;DHT22;1026;51.460;7.252;2023-07-29T07:34:46;18.90;92.60
2042;DHT22;1026;51.460;7.252;2023-07-29T07:37:20;18.90;92.80
2042;DHT22;1026;51.460;7.252;2023-07-29T07:39:53;18.90;92.90
2042;DHT22;1026;51.460;7.252;2023-07-29T07:42:26;18.90;93.00
2042;DHT22;1026;51.460;7.252;2023-07-29T07:44:53;18.90;92.80
2042;DHT22;1026;51.460;7.252;2023-07-29T07:47:20;18.90;93.10
2042;DHT22;1026;51.460;7.252;2023-07-29T07:49:53;18.90;92.70
2042;DHT22;1026;51.460;7.252;2023-07-29T07:52:20;18.90;92.70
2042;DHT22;1026;51.460;7.252;2023-07-29T07:54:54;18.90;92.80
2042;DHT22;1026;51.460;7.252;2023-07-29T07:57:27;18.90;92.70
2042;DHT22;1026;51.460;7.252;2023-07-29T08:00:07;18.90;92.90
2042;DHT22;1026;51.460;7.252;2023-07-29T08:02:34;18.90;92.80
2042;DHT22;1026;51.460;7.252;2023-07-29T08:05:08;18.90;92.70
2042;DHT22;1026;51.460;7.252;2023-07-29T08:07:35;18.90;92.70
2042;DHT22;1026;51.460;7.252;2023-07-29T08:10:09;18.90;92.70
2042;DHT22;1026;51.460;7.252;2023-07-29T08:12:36;18.90;92.60
2042;DHT22;1026;51.460;7.252;2023-07-29T08:15:10;19.00;92.60
2042;DHT22;1026;51.460;7.252;2023-07-29T08:17:43;19.00;92.70
2042;DHT22;1026;51.460;7.252;2023-07-29T08:20:10;19.00;92.80
2042;DHT22;1026;51.460;7.252;2023-07-29T08:22:43;19.00;92.80
2042;DHT22;1026;51.460;7.252;2023-07-29T08:25:17;19.00;92.70
2042;DHT22;1026;51.460;7.252;2023-07-29T08:27:53;19.00;92.70
2042;DHT22;1026;51.460;7.252;2023-07-29T08:30:27;19.00;92.80
2042;DHT22;1026;51.460;7.252;2023-07-29T08:33:00;19.10;92.70
2042;DHT22;1026;51.460;7.252;2023-07-29T08:35:33;19.10;92.90
2042;DHT22;1026;51.460;7.252;2023-07-29T08:38:07;19.10;92.90
2042;DHT22;1026;51.460;7.252;2023-07-29T08:40:35;19.10;92.80
2042;DHT22;1026;51.460;7.252;2023-07-29T08:43:04;19.10;92.70
2042;DHT22;1026;51.460;7.252;2023-07-29T08:45:38;19.10;92.60
2042;DHT22;1026;51.460;7.252;2023-07-29T08:48:10;19.10;92.60
2042;DHT22;1026;51.460;7.252;2023-07-29T08:50:45;19.10;92.50
2042;DHT22;1026;51.460;7.252;2023-07-29T08:53:13;19.10;92.90
2042;DHT22;1026;51.460;7.252;2023-07-29T08:55:47;19.20;92.90
2042;DHT22;1026;51.460;7.252;2023-07-29T08:58:14;19.10;92.90
2042;DHT22;1026;51.460;7.252;2023-07-29T09:00:42;19.20;92.70
2042;DHT22;1026;51.460;7.252;2023-07-29T09:03:16;19.20;92.90
2042;DHT22;1026;51.460;7.252;2023-07-29T09:06:03;19.20;93.00
2042;DHT22;1026;51.460;7.252;2023-07-29T09:08:30;19.20;93.20
2042;DHT22;1026;51.460;7.252;2023-07-29T09:11:04;19.30;93.00
2042;DHT22;1026;51.460;7.252;2023-07-29T09:13:31;19.30;93.00
2042;DHT22;1026;51.460;7.252;2023-07-29T09:15:58;19.30;92.90
2042;DHT22;1026;51.460;7.252;2023-07-29T09:18:31;19.30;92.90
2042;DHT22;1026;51.460;7.252;2023-07-29T09:20:59;19.30;92.90
2042;DHT22;1026;51.460;7.252;2023-07-29T09:23:44;19.30;93.00
2042;DHT22;1026;51.460;7.252;2023-07-29T09:26:12;19.30;92.90
2042;DHT22;1026;51.460;7.252;2023-07-29T09:28:55;19.30;92.90
2042;DHT22;1026;51.460;7.252;2023-07-29T09:31:26;19.40;92.80
2042;DHT22;1026;51.460;7.252;2023-07-29T09:34:02;19.40;92.90
2042;DHT22;1026;51.460;7.252;2023-07-29T09:36:36;19.40;92.90
2042;DHT22;1026;51.460;7.252;2023-07-29T09:39:03;19.40;92.80
2042;DHT22;1026;51.460;7.252;2023-07-29T09:41:47;19.40;92.80
2042;DHT22;1026;51.460;7.252;2023-07-29T09:44:15;19.40;92.80
2042;DHT22;1026;51.460;7.252;2023-07-29T09:46:49;19.40;92.90
2042;DHT22;1026;51.460;7.252;2023-07-29T09:49:22;19.50;92.90
2042;DHT22;1026;51.460;7.252;2023-07-29T09:51:49;19.50;92.90
2042;DHT22;1026;51.460;7.252;2023-07-29T09:54:16;19.50;92.70
2042;DHT22;1026;51.460;7.252;2023-07-29T09:56:50;19.60;92.70
2042;DHT22;1026;51.460;7.252;2023-07-29T09:59:19;19.60;92.60
2042;DHT22;1026;51.460;7.252;2023-07-29T10:01:52;19.80;93.10
2042;DHT22;1026;51.460;7.252;2023-07-29T10:04:27;19.80;93.00
2042;DHT22;1026;51.460;7.252;2023-07-29T10:07:02;19.80;92.80
2042;DHT22;1026;51.460;7.252;2023-07-29T10:09:30;19.80;92.80
2042;DHT22;1026;51.460;7.252;2023-07-29T10:12:26;19.80;92.80
2042;DHT22;1026;51.460;7.252;2023-07-29T10:15:05;19.80;92.80
2042;DHT22;1026;51.460;7.252;2023-07-29T10:18:01;19.80;92.80
2042;DHT22;1026;51.460;7.252;2023-07-29T10:20:36;19.80;92.70
2042;DHT22;1026;51.460;7.252;2023-07-29T10:23:10;19.80;93.00
2042;DHT22;1026;51.460;7.252;2023-07-29T10:25:39;19.80;92.60
2042;DHT22;1026;51.460;7.252;2023-07-29T10:28:18;19.80;92.50
2042;DHT22;1026;51.460;7.252;2023-07-29T10:30:47;19.80;92.70
2042;DHT22;1026;51.460;7.252;2023-07-29T10:33:14;19.80;92.30
2042;DHT22;1026;51.460;7.252;2023-07-29T10:35:47;19.90;92.40
2042;DHT22;1026;51.460;7.252;2023-07-29T10:38:24;19.90;92.50
2042;DHT22;1026;51.460;7.252;2023-07-29T10:40:53;20.00;92.30
2042;DHT22;1026;51.460;7.252;2023-07-29T10:43:37;20.00;92.30
2042;DHT22;1026;51.460;7.252;2023-07-29T10:46:22;20.00;92.30
2042;DHT22;1026;51.460;7.252;2023-07-29T10:48:56;20.00;92.10
2042;DHT22;1026;51.460;7.252;2023-07-29T10:51:37;20.10;92.20
2042;DHT22;1026;51.460;7.252;2023-07-29T10:54:15;20.10;92.30
2042;DHT22;1026;51.460;7.252;2023-07-29T10:56:51;20.10;92.00
2042;DHT22;1026;51.460;7.252;2023-07-29T10:59:39;20.20;92.10
2042;DHT22;1026;51.460;7.252;2023-07-29T11:02:18;20.30;91.70
2042;DHT22;1026;51.460;7.252;2023-07-29T11:04:55;20.30;91.80
2042;DHT22;1026;51.460;7.252;2023-07-29T11:07:29;20.40;91.90
2042;DHT22;1026;51.460;7.252;2023-07-29T11:10:03;20.50;91.70
2042;DHT22;1026;51.460;7.252;2023-07-29T11:12:41;20.50;92.00
2042;DHT22;1026;51.460;7.252;2023-07-29T11:15:23;20.50;91.90
2042;DHT22;1026;51.460;7.252;2023-07-29T11:17:59;20.50;91.70
2042;DHT22;1026;51.460;7.252;2023-07-29T11:20:33;20.50;91.70
2042;DHT22;1026;51.460;7.252;2023-07-29T11:23:02;20.50;91.80
2042;DHT22;1026;51.460;7.252;2023-07-29T11:25:35;20.50;92.00
2042;DHT22;1026;51.460;7.252;2023-07-29T11:28:03;20.50;91.80
2042;DHT22;1026;51.460;7.252;2023-07-29T11:30:39;20.60;91.70
2042;DHT22;1026;51.460;7.252;2023-07-29T11:33:06;20.60;91.50
2042;DHT22;1026;51.460;7.252;2023-07-29T11:35:42;20.60;91.50
2042;DHT22;1026;51.460;7.252;2023-07-29T11:38:26;20.70;91.60
2042;DHT22;1026;51.460;7.252;2023-07-29T11:41:01;20.80;91.50
2042;DHT22;1026;51.460;7.252;2023-07-29T11:43:44;20.80;91.20
2042;DHT22;1026;51.460;7.252;2023-07-29T11:46:11;20.80;91.20
2042;DHT22;1026;51.460;7.252;2023-07-29T11:48:38;20.80;91.20
2042;DHT22;1026;51.460;7.252;2023-07-29T11:51:17;20.80;91.50
2042;DHT22;1026;51.460;7.252;2023-07-29T11:53:44;20.80;91.30
2042;DHT22;1026;51.460;7.252;2023-07-29T11:56:19;20.80;91.40
2042;DHT22;1026;51.460;7.252;2023-07-29T11:58:54;20.80;91.30
2042;DHT22;1026;51.460;7.252;2023-07-29T12:02:13;20.80;91.40
2042;DHT22;1026;51.460;7.252;2023-07-29T12:04:53;20.90;91.30
2042;DHT22;1026;51.460;7.252;2023-07-29T12:07:26;20.90;91.30
2042;DHT22;1026;51.460;7.252;2023-07-29T12:09:53;20.90;91.40
2042;DHT22;1026;51.460;7.252;2023-07-29T12:12:22;21.00;91.30
2042;DHT22;1026;51.460;7.252;2023-07-29T12:14:57;21.00;91.10
2042;DHT22;1026;51.460;7.252;2023-07-29T12:17:24;21.00;91.00
2042;DHT22;1026;51.460;7.252;2023-07-29T12:19:59;21.10;91.00
2042;DHT22;1026;51.460;7.252;2023-07-29T12:22:32;21.10;91.00
2042;DHT22;1026;51.460;7.252;2023-07-29T12:24:59;21.10;90.90
2042;DHT22;1026;51.460;7.252;2023-07-29T12:27:26;21.10;90.90
2042;DHT22;1026;51.460;7.252;2023-07-29T12:30:01;21.10;90.90
2042;DHT22;1026;51.460;7.252;2023-07-29T12:32:30;21.20;91.00
2042;DHT22;1026;51.460;7.252;2023-07-29T12:34:57;21.20;90.90
2042;DHT22;1026;51.460;7.252;2023-07-29T12:37:33;21.20;90.90
2042;DHT22;1026;51.460;7.252;2023-07-29T12:40:07;21.30;90.60
2042;DHT22;1026;51.460;7.252;2023-07-29T12:42:34;21.40;90.50
2042;DHT22;1026;51.460;7.252;2023-07-29T12:45:08;21.40;90.40
2042;DHT22;1026;51.460;7.252;2023-07-29T12:47:35;21.50;90.50
2042;DHT22;1026;51.460;7.252;2023-07-29T12:50:09;21.50;90.10
2042;DHT22;1026;51.460;7.252;2023-07-29T12:52:42;21.50;90.10
2042;DHT22;1026;51.460;7.252;2023-07-29T12:55:15;21.50;90.10
2042;DHT22;1026;51.460;7.252;2023-07-29T12:57:51;21.60;90.10
2042;DHT22;1026;51.460;7.252;2023-07-29T13:00:25;21.60;90.20
2042;DHT22;1026;51.460;7.252;2023-07-29T13:03:05;21.60;90.20
2042;DHT22;1026;51.460;7.252;2023-07-29T13:05:38;21.60;90.10
2042;DHT22;1026;51.460;7.252;2023-07-29T13:08:12;21.60;90.20
2042;DHT22;1026;51.460;7.252;2023-07-29T13:10:39;21.60;90.10
2042;DHT22;1026;51.460;7.252;2023-07-29T13:13:12;21.70;90.30
2042;DHT22;1026;51.460;7.252;2023-07-29T13:15:39;21.70;90.40
2042;DHT22;1026;51.460;7.252;2023-07-29T13:18:21;21.80;89.90
2042;DHT22;1026;51.460;7.252;2023-07-29T13:20:54;21.90;89.60
2042;DHT22;1026;51.460;7.252;2023-07-29T13:23:28;21.90;89.10
2042;DHT22;1026;51.460;7.252;2023-07-29T13:25:57;22.00;89.10
2042;DHT22;1026;51.460;7.252;2023-07-29T13:28:24;22.10;89.70
2042;DHT22;1026;51.460;7.252;2023-07-29T13:30:57;22.10;89.10
2042;DHT22;1026;51.460;7.252;2023-07-29T13:33:24;22.10;89.20
2042;DHT22;1026;51.460;7.252;2023-07-29T13:35:57;22.10;89.00
2042;DHT22;1026;51.460;7.252;2023-07-29T13:38:24;22.10;88.90
2042;DHT22;1026;51.460;7.252;2023-07-29T13:40:57;22.20;88.80
2042;DHT22;1026;51.460;7.252;2023-07-29T13:43:24;22.30;88.70
2042;DHT22;1026;51.460;7.252;2023-07-29T13:45:52;22.30;89.00
2042;DHT22;1026;51.460;7.252;2023-07-29T13:48:25;22.30;88.50
2042;DHT22;1026;51.460;7.252;2023-07-29T13:50:52;22.30;88.70
2042;DHT22;1026;51.460;7.252;2023-07-29T13:53:25;22.40;88.70
2042;DHT22;1026;51.460;7.252;2023-07-29T13:55:52;22.40;88.50
2042;DHT22;1026;51.460;7.252;2023-07-29T13:58:26;22.30;89.40
2042;DHT22;1026;51.460;7.252;2023-07-29T14:01:00;22.30;89.00
2042;DHT22;1026;51.460;7.252;2023-07-29T14:03:47;22.40;88.80
2042;DHT22;1026;51.460;7.252;2023-07-29T14:06:14;22.30;88.30
2042;DHT22;1026;51.460;7.252;2023-07-29T14:09:07;22.40;88.50
2042;DHT22;1026;51.460;7.252;2023-07-29T14:11:34;22.40;88.30
2042;DHT22;1026;51.460;7.252;2023-07-29T14:14:43;22.40;88.60
2042;DHT22;1026;51.460;7.252;2023-07-29T14:17:10;22.40;88.60
2042;DHT22;1026;51.460;7.252;2023-07-29T14:19:43;22.40;89.00
2042;DHT22;1026;51.460;7.252;2023-07-29T14:22:13;22.40;90.00
2042;DHT22;1026;51.460;7.252;2023-07-29T14:24:46;22.50;89.50
2042;DHT22;1026;51.460;7.252;2023-07-29T14:27:13;22.40;90.20
2042;DHT22;1026;51.460;7.252;2023-07-29T14:29:47;22.40;89.30
2042;DHT22;1026;51.460;7.252;2023-07-29T14:32:20;22.40;89.30
2042;DHT22;1026;51.460;7.252;2023-07-29T14:34:49;22.40;88.80
2042;DHT22;1026;51.460;7.252;2023-07-29T14:37:16;22.40;88.70
2042;DHT22;1026;51.460;7.252;2023-07-29T14:39:51;22.40;88.80
2042;DHT22;1026;51.460;7.252;2023-07-29T14:42:31;22.40;90.50
2042;DHT22;1026;51.460;7.252;2023-07-29T14:45:01;22.40;89.60
2042;DHT22;1026;51.460;7.252;2023-07-29T14:47:28;22.40;89.30
2042;DHT22;1026;51.460;7.252;2023-07-29T14:50:06;22.40;89.40
2042;DHT22;1026;51.460;7.252;2023-07-29T14:52:33;22.30;89.20
2042;DHT22;1026;51.460;7.252;2023-07-29T14:55:00;22.30;89.00
2042;DHT22;1026;51.460;7.252;2023-07-29T14:57:35;22.30;89.10
2042;DHT22;1026;51.460;7.252;2023-07-29T15:00:04;22.30;89.10
2042;DHT22;1026;51.460;7.252;2023-07-29T15:02:44;22.30;89.10
2042;DHT22;1026;51.460;7.252;2023-07-29T15:05:25;22.30;89.00
2042;DHT22;1026;51.460;7.252;2023-07-29T15:07:58;22.30;89.10
2042;DHT22;1026;51.460;7.252;2023-07-29T15:10:25;22.40;89.30
2042;DHT22;1026;51.460;7.252;2023-07-29T15:12:58;22.30;89.30
2042;DHT22;1026;51.460;7.252;2023-07-29T15:15:31;22.30;89.40
2042;DHT22;1026;51.460;7.252;2023-07-29T15:17:58;22.30;90.00
2042;DHT22;1026;51.460;7.252;2023-07-29T15:20:31;22.30;89.90
2042;DHT22;1026;51.460;7.252;2023-07-29T15:22:58;22.30;90.10
2042;DHT22;1026;51.460;7.252;2023-07-29T15:25:31;22.30;90.00
2042;DHT22;1026;51.460;7.252;2023-07-29T15:27:58;22.30;89.50
2042;DHT22;1026;51.460;7.252;2023-07-29T15:30:25;22.30;89.60
2042;DHT22;1026;51.460;7.252;2023-07-29T15:32:58;22.20;89.80
2042;DHT22;1026;51.460;7.252;2023-07-29T15:35:25;22.20;89.30
2042;DHT22;1026;51.460;7.252;2023-07-29T15:38:20;22.20;89.50
2042;DHT22;1026;51.460;7.252;2023-07-29T15:40:53;22.20;89.50
2042;DHT22;1026;51.460;7.252;2023-07-29T15:43:27;22.20;89.50
2042;DHT22;1026;51.460;7.252;2023-07-29T15:45:55;22.20;89.50
2042;DHT22;1026;51.460;7.252;2023-07-29T15:48:28;22.20;89.50
2042;DHT22;1026;51.460;7.252;2023-07-29T15:50:55;22.30;89.40
2042;DHT22;1026;51.460;7.252;2023-07-29T15:53:28;22.40;90.10
2042;DHT22;1026;51.460;7.252;2023-07-29T15:55:55;22.40;90.30
2042;DHT22;1026;51.460;7.252;2023-07-29T15:58:24;22.40;90.30
2042;DHT22;1026;51.460;7.252;2023-07-29T16:01:18;22.40;90.10
2042;DHT22;1026;51.460;7.252;2023-07-29T16:03:58;22.30;90.00
2042;DHT22;1026;51.460;7.252;2023-07-29T16:06:32;22.30;90.00
2042;DHT22;1026;51.460;7.252;2023-07-29T16:09:09;22.30;90.10
2042;DHT22;1026;51.460;7.252;2023-07-29T16:11:42;22.20;90.00
2042;DHT22;1026;51.460;7.252;2023-07-29T16:14:40;22.20;90.00
2042;DHT22;1026;51.460;7.252;2023-07-29T16:17:13;22.20;90.00
2042;DHT22;1026;51.460;7.252;2023-07-29T16:20:04;22.20;90.50
2042;DHT22;1026;51.460;7.252;2023-07-29T16:22:46;22.20;90.10
2042;DHT22;1026;51.460;7.252;2023-07-29T16:25:13;22.20;90.10
2042;DHT22;1026;51.460;7.252;2023-07-29T16:28:08;22.20;90.20
2042;DHT22;1026;51.460;7.252;2023-07-29T16:30:41;22.20;90.10
2042;DHT22;1026;51.460;7.252;2023-07-29T16:33:36;22.20;90.30
2042;DHT22;1026;51.460;7.252;2023-07-29T16:36:25;22.20;90.10
2042;DHT22;1026;51.460;7.252;2023-07-29T16:38:58;22.20;90.00
2042;DHT22;1026;51.460;7.252;2023-07-29T16:41:32;22.20;90.10
2042;DHT22;1026;51.460;7.252;2023-07-29T16:44:27;22.20;90.10
2042;DHT22;1026;51.460;7.252;2023-07-29T16:46:54;22.20;90.00
2042;DHT22;1026;51.460;7.252;2023-07-29T16:49:27;22.20;90.00
2042;DHT22;1026;51.460;7.252;2023-07-29T16:52:00;22.20;90.00